createdAt,value
2022-08-18T00:00:20.032Z,10.68
2022-08-18T00:02:58.070Z,9.55
2022-08-18T00:05:28.303Z,10.23
2022-08-18T00:07:57.969Z,10.05
2022-08-18T00:10:25.409Z,9.52
2022-08-18T00:12:52.102Z,9.43
2022-08-18T00:15:25.678Z,11.30
2022-08-18T00:17:52.518Z,10.88
2022-08-18T00:20:23.962Z,10.32
2022-08-18T00:22:52.226Z,10.75
2022-08-18T00:25:20.739Z,11.55
2022-08-18T00:27:47.162Z,12.75
2022-08-18T00:30:18.153Z,14.07
2022-08-18T00:32:48.778Z,13.38
2022-08-18T00:35:20.980Z,13.88
2022-08-18T00:37:48.991Z,14.32
2022-08-18T00:40:20.370Z,13.07
2022-08-18T00:42:50.083Z,13.30
2022-08-18T00:45:20.404Z,11.73
2022-08-18T00:47:47.018Z,11.13
2022-08-18T00:50:18.299Z,13.68
2022-08-18T00:52:58.293Z,13.45
2022-08-18T00:55:26.345Z,11.95
2022-08-18T00:58:01.249Z,11.25
2022-08-18T01:00:27.836Z,12.52
2022-08-18T01:03:00.076Z,11.25
2022-08-18T01:05:33.829Z,12.93
2022-08-18T01:08:00.492Z,12.02
2022-08-18T01:10:26.917Z,12.13
2022-08-18T01:12:55.930Z,12.73
2022-08-18T01:15:27.843Z,12.43
2022-08-18T01:21:14.843Z,11.43
2022-08-18T01:23:41.877Z,12.48
2022-08-18T01:26:09.499Z,11.60
2022-08-18T01:28:39.006Z,11.75
2022-08-18T01:31:07.211Z,14.10
2022-08-18T01:33:43.710Z,13.50
2022-08-18T01:36:16.806Z,14.75
2022-08-18T01:38:45.405Z,12.55
2022-08-18T01:41:26.645Z,14.48
2022-08-18T01:44:02.313Z,14.68
2022-08-18T01:46:31.755Z,14.15
2022-08-18T01:49:00.611Z,12.13
2022-08-18T01:51:39.373Z,13.02
2022-08-18T01:54:08.508Z,13.35
2022-08-18T01:56:36.423Z,12.43
2022-08-18T01:59:03.422Z,13.57
2022-08-18T02:01:36.608Z,13.60
2022-08-18T02:04:33.319Z,15.38
2022-08-18T02:06:53.616Z,13.00
2022-08-18T02:09:23.728Z,12.48
2022-08-18T02:11:53.066Z,15.55
2022-08-18T02:14:27.082Z,14.20
2022-08-18T02:17:02.297Z,14.00
2022-08-18T02:19:35.742Z,14.35
2022-08-18T02:22:02.873Z,14.65
2022-08-18T02:24:29.490Z,14.55
2022-08-18T02:26:56.913Z,15.07
2022-08-18T02:29:23.672Z,14.63
2022-08-18T02:31:50.118Z,13.73
2022-08-18T02:34:17.630Z,14.88
2022-08-18T02:36:44.301Z,17.42
2022-08-18T02:39:11.252Z,15.68
2022-08-18T02:41:37.722Z,13.55
2022-08-18T02:44:07.397Z,16.17
2022-08-18T02:46:34.146Z,14.23
2022-08-18T02:49:01.088Z,16.73
2022-08-18T02:51:27.930Z,14.20
2022-08-18T02:56:42.034Z,15.88
2022-08-18T02:59:12.035Z,14.45
2022-08-18T03:01:41.667Z,15.68
2022-08-18T03:04:10.476Z,16.65
2022-08-18T03:06:38.154Z,15.38
2022-08-18T03:09:06.324Z,14.35
2022-08-18T03:11:32.738Z,14.00
2022-08-18T03:14:00.414Z,14.40
2022-08-18T03:16:27.785Z,14.70
2022-08-18T03:18:56.187Z,14.68
2022-08-18T03:21:25.111Z,14.05
2022-08-18T03:24:00.919Z,14.30
2022-08-18T03:26:29.837Z,14.63
2022-08-18T03:29:00.549Z,16.75
2022-08-18T03:31:31.159Z,15.48
2022-08-18T03:34:01.594Z,15.55
2022-08-18T03:36:31.901Z,15.00
2022-08-18T03:39:04.840Z,14.73
2022-08-18T03:41:57.654Z,14.38
2022-08-18T03:44:18.030Z,15.55
2022-08-18T03:46:45.146Z,13.45
2022-08-18T03:49:13.364Z,15.98
2022-08-18T03:51:49.214Z,15.75
2022-08-18T03:54:17.645Z,14.25
2022-08-18T03:56:46.151Z,15.93
2022-08-18T03:59:17.971Z,16.05
2022-08-18T04:01:46.046Z,16.13
2022-08-18T04:04:15.912Z,17.05
2022-08-18T04:06:46.169Z,15.32
2022-08-18T04:09:14.931Z,16.42
2022-08-18T04:11:43.469Z,15.23
2022-08-18T04:14:14.182Z,17.05
2022-08-18T04:16:41.177Z,15.32
2022-08-18T04:19:08.810Z,15.63
2022-08-18T04:21:39.692Z,13.93
2022-08-18T04:24:07.559Z,14.73
2022-08-18T04:26:41.055Z,13.35
2022-08-18T04:29:10.251Z,14.65
2022-08-18T04:31:37.336Z,13.52
2022-08-18T04:34:04.054Z,14.52
2022-08-18T04:36:35.733Z,11.88
2022-08-18T04:39:05.119Z,12.73
2022-08-18T04:41:31.697Z,14.32
2022-08-18T04:44:00.749Z,13.13
2022-08-18T04:46:28.499Z,12.98
2022-08-18T04:49:01.724Z,13.45
2022-08-18T04:52:37.206Z,11.50
2022-08-18T04:54:16.372Z,13.45
2022-08-18T04:56:45.131Z,14.57
2022-08-18T04:59:13.299Z,13.20
2022-08-18T05:01:45.984Z,11.93
2022-08-18T05:04:14.390Z,14.63
2022-08-18T05:06:43.325Z,12.23
2022-08-18T05:09:12.450Z,15.75
2022-08-18T05:11:44.340Z,11.60
2022-08-18T05:14:11.215Z,14.30
2022-08-18T05:16:48.127Z,12.82
2022-08-18T05:19:21.921Z,14.35
2022-08-18T05:21:51.369Z,11.45
2022-08-18T05:24:21.474Z,14.00
2022-08-18T05:26:48.956Z,13.35
2022-08-18T05:29:18.628Z,14.23
2022-08-18T05:31:47.213Z,12.10
2022-08-18T05:34:13.819Z,15.38
2022-08-18T05:36:49.409Z,13.85
2022-08-18T05:39:21.625Z,13.60
2022-08-18T05:42:01.763Z,14.93
2022-08-18T05:44:32.600Z,13.98
2022-08-18T05:47:11.636Z,11.98
2022-08-18T05:49:39.875Z,13.73
2022-08-18T05:52:12.884Z,12.25
2022-08-18T05:55:06.884Z,15.20
2022-08-18T05:57:42.837Z,11.38
2022-08-18T06:00:12.784Z,14.95
2022-08-18T06:02:45.995Z,12.48
2022-08-18T06:05:20.130Z,13.25
2022-08-18T06:08:03.457Z,13.50
2022-08-18T06:10:31.201Z,13.40
2022-08-18T06:13:00.060Z,11.60
2022-08-18T06:15:50.518Z,12.13
2022-08-18T06:18:54.292Z,12.95
2022-08-18T06:21:38.340Z,13.13
2022-08-18T06:24:20.706Z,12.38
2022-08-18T06:27:00.842Z,12.65
2022-08-18T06:30:05.211Z,11.20
2022-08-18T06:33:12.846Z,13.10
2022-08-18T06:35:49.316Z,12.85
2022-08-18T06:38:37.335Z,13.27
2022-08-18T06:41:09.585Z,13.13
2022-08-18T06:44:00.406Z,11.80
2022-08-18T06:46:44.330Z,11.27
2022-08-18T06:49:36.272Z,12.07
2022-08-18T06:52:35.965Z,13.70
2022-08-18T06:55:16.903Z,13.73
2022-08-18T06:57:57.645Z,13.35
2022-08-18T07:00:26.861Z,11.73
2022-08-18T07:03:04.337Z,12.70
2022-08-18T07:05:35.560Z,13.23
2022-08-18T07:08:20.471Z,13.45
2022-08-18T07:10:49.681Z,13.48
2022-08-18T07:13:20.730Z,13.82
2022-08-18T07:15:48.456Z,9.75
2022-08-18T07:18:23.260Z,13.90
2022-08-18T07:20:56.808Z,12.90
2022-08-18T07:23:27.612Z,12.43
2022-08-18T07:26:23.570Z,10.50
2022-08-18T07:28:51.878Z,12.48
2022-08-18T07:31:49.034Z,12.70
2022-08-18T07:34:25.719Z,13.10
2022-08-18T07:37:07.282Z,12.45
2022-08-18T07:40:00.053Z,12.65
2022-08-18T07:43:00.534Z,12.90
2022-08-18T07:45:35.833Z,12.57
2022-08-18T07:48:34.421Z,12.35
2022-08-18T07:51:08.923Z,12.48
2022-08-18T07:53:57.946Z,11.57
2022-08-18T07:56:41.113Z,12.75
2022-08-18T07:59:29.618Z,13.30
2022-08-18T08:02:13.331Z,10.77
2022-08-18T08:04:58.839Z,13.05
2022-08-18T08:07:31.192Z,12.35
2022-08-18T08:10:22.524Z,12.27
2022-08-18T08:13:54.719Z,12.50
2022-08-18T08:16:44.259Z,11.63
2022-08-18T08:20:00.192Z,13.50
2022-08-18T08:22:49.362Z,13.88
2022-08-18T08:25:45.916Z,12.23
2022-08-18T08:28:25.646Z,11.52
2022-08-18T08:31:36.278Z,11.43
2022-08-18T08:34:08.972Z,11.65
2022-08-18T08:36:42.634Z,11.88
2022-08-18T08:39:37.725Z,12.32
2022-08-18T08:42:30.799Z,12.48
2022-08-18T08:45:07.231Z,10.70
2022-08-18T08:47:58.434Z,11.85
2022-08-18T08:50:36.538Z,11.10
2022-08-18T08:53:12.837Z,12.05
2022-08-18T08:55:46.216Z,11.75
2022-08-18T08:58:30.634Z,12.10
2022-08-18T09:00:58.265Z,11.10
2022-08-18T09:03:33.421Z,10.65
2022-08-18T09:05:59.812Z,11.27
2022-08-18T09:09:04.045Z,9.00
2022-08-18T09:11:40.123Z,11.25
2022-08-18T09:14:42.539Z,11.52
2022-08-18T09:17:15.012Z,12.82
2022-08-18T09:22:42.217Z,12.50
2022-08-18T09:25:44.904Z,11.88
2022-08-18T09:28:12.246Z,12.10
2022-08-18T09:31:08.574Z,10.40
2022-08-18T09:33:38.425Z,10.77
2022-08-18T09:36:10.600Z,11.55
2022-08-18T09:39:06.314Z,9.82
2022-08-18T09:41:49.017Z,10.70
2022-08-18T09:44:42.777Z,11.20
2022-08-18T09:47:10.151Z,11.88
2022-08-18T09:49:53.468Z,10.70
2022-08-18T09:52:21.299Z,9.88
2022-08-18T09:55:17.958Z,10.27
2022-08-18T09:57:46.553Z,9.77
2022-08-18T10:00:26.620Z,10.13
2022-08-18T10:02:55.167Z,8.38
2022-08-18T10:05:27.448Z,8.13
2022-08-18T10:08:21.304Z,7.78
2022-08-18T10:11:19.519Z,8.05
2022-08-18T10:13:58.830Z,8.70
2022-08-18T10:17:15.705Z,7.80
2022-08-18T10:20:25.786Z,8.88
2022-08-18T10:22:56.390Z,8.00
2022-08-18T10:26:00.361Z,7.40
2022-08-18T10:28:54.026Z,7.85
2022-08-18T10:31:24.149Z,7.75
2022-08-18T10:37:06.448Z,7.53
2022-08-18T10:40:01.117Z,7.97
2022-08-18T10:43:26.999Z,7.90
2022-08-18T10:46:24.706Z,8.45
2022-08-18T10:48:41.843Z,7.57
2022-08-18T10:51:11.559Z,8.60
2022-08-18T10:53:50.998Z,8.50
2022-08-18T10:56:31.897Z,8.10
2022-08-18T10:59:16.211Z,7.43
2022-08-18T11:02:08.112Z,7.55
2022-08-18T11:04:43.658Z,8.02
2022-08-18T11:07:23.425Z,9.20
2022-08-18T11:10:04.387Z,7.85
2022-08-18T11:13:01.563Z,8.00
2022-08-18T11:16:00.925Z,7.32
2022-08-18T11:18:43.022Z,6.50
2022-08-18T11:21:31.483Z,8.52
2022-08-18T11:27:24.505Z,8.82
2022-08-18T11:29:51.801Z,8.88
2022-08-18T11:32:30.682Z,8.50
2022-08-18T11:34:58.445Z,7.75
2022-08-18T11:37:51.239Z,7.80
2022-08-18T11:43:09.940Z,8.07
2022-08-18T11:45:43.947Z,7.10
2022-08-18T11:50:59.004Z,7.72
2022-08-18T11:53:44.072Z,7.80
2022-08-18T11:56:14.349Z,10.13
2022-08-18T11:58:52.145Z,8.48
2022-08-18T12:01:45.859Z,8.63
2022-08-18T12:04:38.432Z,8.85
2022-08-18T12:12:32.322Z,7.90
2022-08-18T12:15:24.666Z,8.30
2022-08-18T12:17:53.057Z,8.60
2022-08-18T12:20:21.081Z,8.80
2022-08-18T12:22:49.541Z,8.43
2022-08-18T12:25:25.267Z,8.52
2022-08-18T12:27:53.111Z,8.20
2022-08-18T12:30:22.051Z,8.30
2022-08-18T12:32:56.400Z,8.30
2022-08-18T12:35:32.408Z,7.97
2022-08-18T12:38:03.262Z,7.70
2022-08-18T12:40:31.604Z,8.13
2022-08-18T12:43:00.215Z,7.57
2022-08-18T12:45:27.892Z,7.93
2022-08-18T12:47:55.500Z,7.68
2022-08-18T12:50:31.834Z,7.50
2022-08-18T12:53:00.095Z,8.05
2022-08-18T12:55:29.355Z,7.72
2022-08-18T12:57:57.434Z,8.05
2022-08-18T13:00:27.804Z,8.23
2022-08-18T13:02:54.925Z,7.45
2022-08-18T13:05:26.303Z,7.72
2022-08-18T13:07:57.990Z,7.65
2022-08-18T13:10:42.928Z,7.30
2022-08-18T13:13:11.092Z,8.52
2022-08-18T13:15:37.628Z,8.05
2022-08-18T13:18:04.301Z,8.32
2022-08-18T13:20:30.694Z,7.63
2022-08-18T13:22:58.687Z,7.63
2022-08-18T13:25:33.032Z,7.53
2022-08-18T13:28:06.205Z,8.25
2022-08-18T13:30:33.081Z,8.32
2022-08-18T13:33:53.483Z,9.20
2022-08-18T13:35:54.433Z,8.25
2022-08-18T13:38:25.983Z,8.68
2022-08-18T13:41:00.210Z,8.20
2022-08-18T13:43:32.520Z,8.80
2022-08-18T13:46:01.440Z,8.88
2022-08-18T13:48:29.734Z,8.55
2022-08-18T13:50:58.837Z,8.70
2022-08-18T13:53:29.680Z,9.05
2022-08-18T13:56:00.481Z,9.25
2022-08-18T13:58:28.666Z,8.57
2022-08-18T14:04:01.127Z,8.77
2022-08-18T14:08:59.835Z,10.02
2022-08-18T14:11:33.228Z,9.65
2022-08-18T14:14:02.990Z,9.88
2022-08-18T14:16:29.688Z,9.48
2022-08-18T14:19:26.715Z,9.73
2022-08-18T14:22:15.290Z,9.60
2022-08-18T14:25:03.185Z,8.45
2022-08-18T14:27:35.011Z,9.07
2022-08-18T14:30:08.295Z,9.38
2022-08-18T14:32:36.075Z,9.05
2022-08-18T14:35:33.835Z,9.73
2022-08-18T14:37:52.266Z,9.32
2022-08-18T14:40:20.078Z,9.07
2022-08-18T14:42:54.829Z,9.10
2022-08-18T14:45:31.648Z,9.90
2022-08-18T14:48:06.552Z,9.48
2022-08-18T14:53:05.986Z,9.43
2022-08-18T14:55:32.406Z,9.02
2022-08-18T14:58:01.159Z,9.23
2022-08-18T15:00:28.252Z,8.57
2022-08-18T15:02:55.410Z,8.63
2022-08-18T15:05:24.614Z,8.73
2022-08-18T15:07:52.371Z,8.63
2022-08-18T15:10:23.708Z,8.57
2022-08-18T15:12:54.919Z,8.20
2022-08-18T15:15:22.365Z,7.68
2022-08-18T15:17:52.648Z,8.05
2022-08-18T15:20:28.956Z,9.00
2022-08-18T15:23:25.077Z,8.25
2022-08-18T15:25:56.543Z,8.57
2022-08-18T15:28:26.261Z,8.32
2022-08-18T15:31:16.472Z,8.57
2022-08-18T15:33:39.608Z,7.93
2022-08-18T15:36:09.927Z,9.32
2022-08-18T15:38:37.029Z,8.02
2022-08-18T15:41:06.323Z,9.70
2022-08-18T15:46:12.580Z,9.52
2022-08-18T15:48:43.022Z,7.57
2022-08-18T15:51:12.217Z,8.90
2022-08-18T15:53:44.573Z,7.53
2022-08-18T15:56:31.529Z,9.05
2022-08-18T15:59:00.488Z,7.68
2022-08-18T16:01:32.102Z,7.82
2022-08-18T16:03:59.733Z,7.90
2022-08-18T16:06:27.727Z,7.70
2022-08-18T16:09:01.388Z,7.35
2022-08-18T16:11:29.664Z,7.30
2022-08-18T16:14:01.147Z,7.13
2022-08-18T16:16:35.840Z,6.68
2022-08-18T16:19:05.555Z,7.95
2022-08-18T16:21:32.192Z,7.53
2022-08-18T16:23:58.664Z,7.15
2022-08-18T16:26:25.047Z,7.32
2022-08-18T16:28:53.211Z,7.03
2022-08-18T16:31:28.168Z,7.43
2022-08-18T16:33:59.838Z,6.85
2022-08-18T16:36:26.404Z,7.00
2022-08-18T16:38:53.830Z,6.50
2022-08-18T16:41:22.475Z,7.10
2022-08-18T16:43:49.354Z,7.35
2022-08-18T16:46:25.926Z,7.75
2022-08-18T16:48:53.473Z,6.85
2022-08-18T16:51:22.373Z,6.93
2022-08-18T16:53:52.072Z,6.63
2022-08-18T16:56:21.752Z,6.68
2022-08-18T16:59:07.481Z,7.10
2022-08-18T17:01:52.652Z,6.88
2022-08-18T17:04:22.856Z,7.10
2022-08-18T17:06:50.119Z,6.90
2022-08-18T17:09:17.799Z,7.50
2022-08-18T17:11:51.553Z,7.15
2022-08-18T17:14:20.048Z,6.90
2022-08-18T17:16:48.758Z,7.10
2022-08-18T17:19:15.342Z,8.05
2022-08-18T17:21:41.821Z,6.90
2022-08-18T17:24:11.376Z,7.60
2022-08-18T17:26:56.800Z,6.88
2022-08-18T17:29:50.078Z,7.32
2022-08-18T17:32:28.025Z,7.13
2022-08-18T17:35:13.012Z,7.40
2022-08-18T17:37:49.141Z,6.75
2022-08-18T17:40:23.361Z,7.63
2022-08-18T17:42:51.683Z,6.55
2022-08-18T17:45:21.659Z,7.03
2022-08-18T17:47:56.932Z,6.53
2022-08-18T17:50:59.923Z,6.28
2022-08-18T17:56:06.648Z,6.60
2022-08-18T17:58:58.246Z,6.38
2022-08-18T18:01:27.117Z,6.70
2022-08-18T18:03:54.026Z,6.82
2022-08-18T18:06:36.012Z,6.45
2022-08-18T18:09:09.379Z,7.78
2022-08-18T18:11:40.194Z,7.50
2022-08-18T18:14:34.711Z,7.90
2022-08-18T18:17:28.914Z,7.35
2022-08-18T18:20:17.368Z,6.60
2022-08-18T18:22:45.693Z,6.57
2022-08-18T18:25:13.513Z,7.00
2022-08-18T18:27:43.571Z,7.20
2022-08-18T18:30:16.994Z,7.82
2022-08-18T18:33:13.578Z,6.53
2022-08-18T18:35:54.397Z,6.70
2022-08-18T18:38:26.033Z,6.95
2022-08-18T18:41:13.811Z,6.53
2022-08-18T18:43:44.446Z,6.55
2022-08-18T18:46:18.891Z,7.55
2022-08-18T18:49:16.969Z,6.75
2022-08-18T18:51:50.746Z,6.40
2022-08-18T18:54:40.362Z,6.88
2022-08-18T18:57:18.486Z,7.72
2022-08-18T19:00:03.424Z,6.80
2022-08-18T19:02:44.865Z,6.85
2022-08-18T19:05:27.897Z,7.80
2022-08-18T19:08:06.622Z,6.25
2022-08-18T19:10:45.075Z,6.75
2022-08-18T19:13:32.618Z,7.60
2022-08-18T19:16:28.317Z,7.10
2022-08-18T19:19:37.453Z,6.60
2022-08-18T19:22:05.601Z,6.63
2022-08-18T19:24:39.193Z,6.80
2022-08-18T19:27:10.652Z,8.20
2022-08-18T19:29:41.851Z,6.80
2022-08-18T19:32:16.332Z,7.85
2022-08-18T19:34:51.621Z,7.13
2022-08-18T19:38:04.438Z,6.80
2022-08-18T19:40:54.381Z,6.53
2022-08-18T19:43:47.344Z,7.28
2022-08-18T19:49:03.547Z,6.53
2022-08-18T19:51:38.511Z,6.80
2022-08-18T19:54:34.454Z,7.40
2022-08-18T19:57:23.247Z,6.88
2022-08-18T20:00:20.374Z,6.65
2022-08-18T20:03:33.299Z,6.65
2022-08-18T20:06:34.662Z,6.70
2022-08-18T20:09:20.078Z,7.72
2022-08-18T20:12:01.961Z,6.55
2022-08-18T20:14:33.026Z,6.50
2022-08-18T20:17:16.595Z,6.93
2022-08-18T20:19:59.322Z,6.70
2022-08-18T20:25:07.344Z,6.38
2022-08-18T20:27:36.396Z,6.03
2022-08-18T20:30:24.039Z,7.43
2022-08-18T20:33:25.842Z,6.53
2022-08-18T20:35:52.413Z,6.95
2022-08-18T20:38:21.801Z,7.68
2022-08-18T20:40:51.370Z,6.25
2022-08-18T20:43:34.318Z,7.28
2022-08-18T20:46:35.147Z,6.68
2022-08-18T20:49:36.637Z,7.38
2022-08-18T20:52:15.540Z,7.25
2022-08-18T20:54:58.513Z,6.65
2022-08-18T20:57:27.607Z,6.65
2022-08-18T21:00:04.206Z,6.80
2022-08-18T21:02:38.319Z,7.00
2022-08-18T21:05:05.266Z,7.82
2022-08-18T21:07:37.947Z,7.00
2022-08-18T21:10:20.241Z,6.13
2022-08-18T21:12:55.796Z,6.65
2022-08-18T21:15:27.457Z,6.47
2022-08-18T21:18:02.644Z,6.60
2022-08-18T21:20:31.487Z,5.93
2022-08-18T21:23:06.405Z,6.30
2022-08-18T21:25:33.194Z,6.38
2022-08-18T21:28:03.180Z,6.70
2022-08-18T21:30:31.525Z,6.28
2022-08-18T21:32:58.138Z,6.53
2022-08-18T21:35:38.093Z,6.80
2022-08-18T21:38:07.927Z,7.30
2022-08-18T21:40:34.303Z,7.30
2022-08-18T21:43:04.647Z,6.82
2022-08-18T21:45:33.151Z,6.47
2022-08-18T21:48:05.601Z,6.45
2022-08-18T21:50:34.898Z,6.65
2022-08-18T21:53:16.261Z,6.97
2022-08-18T21:55:46.251Z,6.20
2022-08-18T21:58:18.696Z,7.13
2022-08-18T22:01:06.806Z,6.43
2022-08-18T22:03:36.162Z,6.30
2022-08-18T22:06:24.834Z,7.45
2022-08-18T22:09:24.310Z,6.30
2022-08-18T22:12:38.185Z,6.85
2022-08-18T22:15:27.446Z,7.53
2022-08-18T22:18:08.060Z,6.47
2022-08-18T22:20:43.299Z,6.65
2022-08-18T22:23:34.445Z,8.02
2022-08-18T22:26:16.031Z,6.72
2022-08-18T22:28:54.665Z,6.53
2022-08-18T22:31:23.228Z,7.25
2022-08-18T22:33:51.847Z,7.25
2022-08-18T22:36:21.762Z,7.05
2022-08-18T22:38:48.966Z,6.68
2022-08-18T22:41:16.821Z,7.85
2022-08-18T22:43:43.917Z,7.15
2022-08-18T22:46:11.461Z,8.10
2022-08-18T22:48:38.738Z,7.13
2022-08-18T22:51:05.920Z,7.43
2022-08-18T22:53:32.385Z,6.95
2022-08-18T22:56:05.901Z,7.22
2022-08-18T22:58:36.680Z,6.55
2022-08-18T23:01:06.136Z,7.93
2022-08-18T23:03:34.410Z,6.90
2022-08-18T23:06:09.566Z,8.02
2022-08-18T23:08:54.689Z,7.40
2022-08-18T23:11:24.099Z,6.47
2022-08-18T23:13:51.101Z,6.95
2022-08-18T23:16:31.302Z,6.97
2022-08-18T23:19:02.451Z,7.07
2022-08-18T23:21:35.143Z,6.88
2022-08-18T23:24:07.537Z,7.43
2022-08-18T23:26:34.449Z,7.35
2022-08-18T23:29:05.021Z,7.25
2022-08-18T23:31:32.536Z,6.97
2022-08-18T23:34:01.981Z,7.30
2022-08-18T23:36:30.783Z,6.43
2022-08-18T23:39:02.901Z,6.82
2022-08-18T23:41:29.506Z,6.75
2022-08-18T23:43:56.668Z,7.18
2022-08-18T23:46:27.905Z,7.63
2022-08-18T23:49:00.275Z,7.50
2022-08-18T23:51:34.768Z,7.50
2022-08-18T23:54:04.799Z,6.80
2022-08-18T23:56:32.269Z,6.82
2022-08-18T23:59:00.088Z,7.32
